sensor_id;sensor_type;location;lat;lon;timestamp;P1;durP1;ratioP1;P2;durP2;ratioP2
5333;SDS011;2689;50.954;7.116;2023-09-19T00:00:05;7.93;;;3.00;;
5333;SDS011;2689;50.954;7.116;2023-09-19T00:02:37;5.93;;;2.97;;
5333;SDS011;2689;50.954;7.116;2023-09-19T00:05:05;6.53;;;3.37;;
5333;SDS011;2689;50.954;7.116;2023-09-19T00:07:32;3.57;;;2.13;;
5333;SDS011;2689;50.954;7.116;2023-09-19T00:10:01;6.53;;;2.40;;
5333;SDS011;2689;50.954;7.116;2023-09-19T00:12:29;8.20;;;2.90;;
5333;SDS011;2689;50.954;7.116;2023-09-19T00:14:56;6.60;;;2.70;;
5333;SDS011;2689;50.954;7.116;2023-09-19T00:17:27;12.00;;;2.97;;
5333;SDS011;2689;50.954;7.116;2023-09-19T00:19:55;6.20;;;2.60;;
5333;SDS011;2689;50.954;7.116;2023-09-19T00:22:22;6.23;;;2.33;;
5333;SDS011;2689;50.954;7.116;2023-09-19T00:24:50;11.13;;;2.80;;
5333;SDS011;2689;50.954;7.116;2023-09-19T00:27:17;8.50;;;3.60;;
5333;SDS011;2689;50.954;7.116;2023-09-19T00:29:44;6.40;;;2.43;;
5333;SDS011;2689;50.954;7.116;2023-09-19T00:32:11;6.43;;;2.50;;
5333;SDS011;2689;50.954;7.116;2023-09-19T00:34:39;7.90;;;2.50;;
5333;SDS011;2689;50.954;7.116;2023-09-19T00:37:07;6.17;;;2.50;;
5333;SDS011;2689;50.954;7.116;2023-09-19T00:39:36;7.60;;;2.50;;
5333;SDS011;2689;50.954;7.116;2023-09-19T00:42:03;6.03;;;2.87;;
5333;SDS011;2689;50.954;7.116;2023-09-19T00:44:30;8.27;;;2.67;;
5333;SDS011;2689;50.954;7.116;2023-09-19T00:46:59;7.40;;;3.07;;
5333;SDS011;2689;50.954;7.116;2023-09-19T00:49:27;8.83;;;2.90;;
5333;SDS011;2689;50.954;7.116;2023-09-19T00:51:57;6.40;;;2.20;;
5333;SDS011;2689;50.954;7.116;2023-09-19T00:54:25;7.50;;;2.60;;
5333;SDS011;2689;50.954;7.116;2023-09-19T00:56:53;7.97;;;2.40;;
5333;SDS011;2689;50.954;7.116;2023-09-19T00:59:20;3.73;;;2.33;;
5333;SDS011;2689;50.954;7.116;2023-09-19T01:01:47;7.17;;;2.07;;
5333;SDS011;2689;50.954;7.116;2023-09-19T01:04:18;9.47;;;3.00;;
5333;SDS011;2689;50.954;7.116;2023-09-19T01:06:45;8.33;;;1.93;;
5333;SDS011;2689;50.954;7.116;2023-09-19T01:09:13;8.40;;;2.17;;
5333;SDS011;2689;50.954;7.116;2023-09-19T01:11:40;11.90;;;2.97;;
5333;SDS011;2689;50.954;7.116;2023-09-19T01:14:15;8.23;;;2.93;;
5333;SDS011;2689;50.954;7.116;2023-09-19T01:16:48;4.57;;;2.30;;
5333;SDS011;2689;50.954;7.116;2023-09-19T01:19:28;8.17;;;2.67;;
5333;SDS011;2689;50.954;7.116;2023-09-19T01:22:16;5.50;;;2.00;;
5333;SDS011;2689;50.954;7.116;2023-09-19T01:30:43;7.43;;;2.47;;
5333;SDS011;2689;50.954;7.116;2023-09-19T01:33:12;6.23;;;2.07;;
5333;SDS011;2689;50.954;7.116;2023-09-19T01:35:39;6.30;;;2.37;;
5333;SDS011;2689;50.954;7.116;2023-09-19T01:38:06;9.13;;;2.37;;
5333;SDS011;2689;50.954;7.116;2023-09-19T01:40:35;9.00;;;2.20;;
5333;SDS011;2689;50.954;7.116;2023-09-19T01:43:08;5.97;;;2.40;;
5333;SDS011;2689;50.954;7.116;2023-09-19T01:45:41;7.63;;;2.30;;
5333;SDS011;2689;50.954;7.116;2023-09-19T01:48:17;7.63;;;2.40;;
5333;SDS011;2689;50.954;7.116;2023-09-19T01:50:53;7.27;;;2.40;;
5333;SDS011;2689;50.954;7.116;2023-09-19T01:53:26;10.23;;;2.23;;
5333;SDS011;2689;50.954;7.116;2023-09-19T01:55:55;5.47;;;2.20;;
5333;SDS011;2689;50.954;7.116;2023-09-19T01:58:26;13.33;;;2.53;;
5333;SDS011;2689;50.954;7.116;2023-09-19T02:01:00;7.43;;;2.20;;
5333;SDS011;2689;50.954;7.116;2023-09-19T02:03:30;4.50;;;1.83;;
5333;SDS011;2689;50.954;7.116;2023-09-19T02:05:57;7.07;;;2.27;;
5333;SDS011;2689;50.954;7.116;2023-09-19T02:08:24;5.07;;;1.80;;
5333;SDS011;2689;50.954;7.116;2023-09-19T02:14:14;8.20;;;2.40;;
5333;SDS011;2689;50.954;7.116;2023-09-19T02:16:42;4.03;;;1.87;;
5333;SDS011;2689;50.954;7.116;2023-09-19T02:19:09;8.30;;;2.90;;
5333;SDS011;2689;50.954;7.116;2023-09-19T02:21:36;8.00;;;1.90;;
5333;SDS011;2689;50.954;7.116;2023-09-19T02:24:05;7.53;;;2.03;;
5333;SDS011;2689;50.954;7.116;2023-09-19T02:26:32;12.90;;;2.43;;
5333;SDS011;2689;50.954;7.116;2023-09-19T02:29:01;7.93;;;2.50;;
5333;SDS011;2689;50.954;7.116;2023-09-19T02:31:29;5.80;;;2.20;;
5333;SDS011;2689;50.954;7.116;2023-09-19T02:33:58;12.40;;;2.60;;
5333;SDS011;2689;50.954;7.116;2023-09-19T02:36:25;8.93;;;2.17;;
5333;SDS011;2689;50.954;7.116;2023-09-19T02:38:51;7.77;;;1.90;;
5333;SDS011;2689;50.954;7.116;2023-09-19T02:41:18;11.57;;;3.30;;
5333;SDS011;2689;50.954;7.116;2023-09-19T02:43:45;9.87;;;2.40;;
5333;SDS011;2689;50.954;7.116;2023-09-19T02:46:12;9.60;;;2.10;;
5333;SDS011;2689;50.954;7.116;2023-09-19T02:48:39;3.87;;;2.07;;
5333;SDS011;2689;50.954;7.116;2023-09-19T02:51:08;8.87;;;2.70;;
5333;SDS011;2689;50.954;7.116;2023-09-19T02:53:35;5.90;;;2.30;;
5333;SDS011;2689;50.954;7.116;2023-09-19T02:56:01;9.37;;;2.80;;
5333;SDS011;2689;50.954;7.116;2023-09-19T02:58:29;8.37;;;2.40;;
5333;SDS011;2689;50.954;7.116;2023-09-19T03:01:07;7.13;;;1.93;;
5333;SDS011;2689;50.954;7.116;2023-09-19T03:03:34;7.90;;;2.10;;
5333;SDS011;2689;50.954;7.116;2023-09-19T03:06:02;9.43;;;2.47;;
5333;SDS011;2689;50.954;7.116;2023-09-19T03:08:31;7.10;;;2.20;;
5333;SDS011;2689;50.954;7.116;2023-09-19T03:11:01;8.90;;;2.33;;
5333;SDS011;2689;50.954;7.116;2023-09-19T03:13:30;9.43;;;2.57;;
5333;SDS011;2689;50.954;7.116;2023-09-19T03:15:57;4.63;;;1.90;;
5333;SDS011;2689;50.954;7.116;2023-09-19T03:18:24;7.93;;;2.73;;
5333;SDS011;2689;50.954;7.116;2023-09-19T03:20:52;7.20;;;2.43;;
5333;SDS011;2689;50.954;7.116;2023-09-19T03:23:20;10.83;;;2.73;;
5333;SDS011;2689;50.954;7.116;2023-09-19T03:25:48;11.53;;;2.40;;
5333;SDS011;2689;50.954;7.116;2023-09-19T03:28:15;7.20;;;2.53;;
5333;SDS011;2689;50.954;7.116;2023-09-19T03:30:42;11.30;;;2.43;;
5333;SDS011;2689;50.954;7.116;2023-09-19T03:33:09;6.60;;;2.07;;
5333;SDS011;2689;50.954;7.116;2023-09-19T03:35:37;8.53;;;2.27;;
5333;SDS011;2689;50.954;7.116;2023-09-19T03:38:05;11.23;;;3.60;;
5333;SDS011;2689;50.954;7.116;2023-09-19T03:40:32;9.83;;;2.23;;
5333;SDS011;2689;50.954;7.116;2023-09-19T03:43:04;9.53;;;3.13;;
5333;SDS011;2689;50.954;7.116;2023-09-19T03:45:31;8.40;;;2.67;;
5333;SDS011;2689;50.954;7.116;2023-09-19T03:47:57;12.20;;;3.10;;
5333;SDS011;2689;50.954;7.116;2023-09-19T03:50:24;9.87;;;2.20;;
5333;SDS011;2689;50.954;7.116;2023-09-19T03:52:55;11.97;;;2.87;;
5333;SDS011;2689;50.954;7.116;2023-09-19T03:55:22;15.10;;;2.33;;
5333;SDS011;2689;50.954;7.116;2023-09-19T03:57:49;8.83;;;2.63;;
5333;SDS011;2689;50.954;7.116;2023-09-19T04:00:18;11.87;;;3.17;;
5333;SDS011;2689;50.954;7.116;2023-09-19T04:02:46;11.37;;;2.97;;
5333;SDS011;2689;50.954;7.116;2023-09-19T04:05:13;16.13;;;3.27;;
5333;SDS011;2689;50.954;7.116;2023-09-19T04:07:40;9.57;;;2.57;;
5333;SDS011;2689;50.954;7.116;2023-09-19T04:10:07;7.70;;;2.30;;
5333;SDS011;2689;50.954;7.116;2023-09-19T04:12:36;7.43;;;2.07;;
5333;SDS011;2689;50.954;7.116;2023-09-19T04:15:04;8.33;;;2.63;;
5333;SDS011;2689;50.954;7.116;2023-09-19T04:17:33;6.77;;;2.53;;
5333;SDS011;2689;50.954;7.116;2023-09-19T04:20:00;8.77;;;3.30;;
5333;SDS011;2689;50.954;7.116;2023-09-19T04:22:29;8.73;;;2.80;;
5333;SDS011;2689;50.954;7.116;2023-09-19T04:24:56;6.20;;;2.70;;
5333;SDS011;2689;50.954;7.116;2023-09-19T04:27:23;7.27;;;2.63;;
5333;SDS011;2689;50.954;7.116;2023-09-19T04:29:50;10.03;;;2.67;;
5333;SDS011;2689;50.954;7.116;2023-09-19T04:32:18;7.17;;;2.60;;
5333;SDS011;2689;50.954;7.116;2023-09-19T04:34:46;10.63;;;2.67;;
5333;SDS011;2689;50.954;7.116;2023-09-19T04:37:14;10.30;;;2.30;;
5333;SDS011;2689;50.954;7.116;2023-09-19T04:39:41;14.87;;;3.50;;
5333;SDS011;2689;50.954;7.116;2023-09-19T04:42:08;8.80;;;3.00;;
5333;SDS011;2689;50.954;7.116;2023-09-19T04:44:36;16.03;;;3.57;;
5333;SDS011;2689;50.954;7.116;2023-09-19T04:47:03;9.40;;;3.03;;
5333;SDS011;2689;50.954;7.116;2023-09-19T04:49:31;10.53;;;2.97;;
5333;SDS011;2689;50.954;7.116;2023-09-19T04:51:59;8.30;;;3.17;;
5333;SDS011;2689;50.954;7.116;2023-09-19T04:54:26;10.10;;;2.40;;
5333;SDS011;2689;50.954;7.116;2023-09-19T04:56:53;5.67;;;2.27;;
5333;SDS011;2689;50.954;7.116;2023-09-19T04:59:19;11.33;;;2.70;;
5333;SDS011;2689;50.954;7.116;2023-09-19T05:01:46;8.70;;;2.70;;
5333;SDS011;2689;50.954;7.116;2023-09-19T05:04:13;8.80;;;3.13;;
5333;SDS011;2689;50.954;7.116;2023-09-19T05:06:40;11.40;;;3.30;;
5333;SDS011;2689;50.954;7.116;2023-09-19T05:09:08;9.70;;;2.70;;
5333;SDS011;2689;50.954;7.116;2023-09-19T05:11:35;7.17;;;2.97;;
5333;SDS011;2689;50.954;7.116;2023-09-19T05:14:03;11.70;;;3.13;;
5333;SDS011;2689;50.954;7.116;2023-09-19T05:16:30;8.07;;;2.63;;
5333;SDS011;2689;50.954;7.116;2023-09-19T05:18:57;8.53;;;3.33;;
5333;SDS011;2689;50.954;7.116;2023-09-19T05:21:25;9.77;;;3.53;;
5333;SDS011;2689;50.954;7.116;2023-09-19T05:23:54;8.63;;;2.40;;
5333;SDS011;2689;50.954;7.116;2023-09-19T05:26:22;11.13;;;3.30;;
5333;SDS011;2689;50.954;7.116;2023-09-19T05:28:49;9.37;;;2.80;;
5333;SDS011;2689;50.954;7.116;2023-09-19T05:31:15;14.70;;;3.53;;
5333;SDS011;2689;50.954;7.116;2023-09-19T05:33:42;10.00;;;2.80;;
5333;SDS011;2689;50.954;7.116;2023-09-19T05:36:09;8.80;;;2.23;;
5333;SDS011;2689;50.954;7.116;2023-09-19T05:38:37;12.17;;;2.30;;
5333;SDS011;2689;50.954;7.116;2023-09-19T05:41:07;9.90;;;3.23;;
5333;SDS011;2689;50.954;7.116;2023-09-19T05:43:35;9.67;;;3.00;;
5333;SDS011;2689;50.954;7.116;2023-09-19T05:46:02;14.43;;;3.13;;
5333;SDS011;2689;50.954;7.116;2023-09-19T05:48:29;9.67;;;2.53;;
5333;SDS011;2689;50.954;7.116;2023-09-19T05:50:56;9.13;;;2.60;;
5333;SDS011;2689;50.954;7.116;2023-09-19T05:53:23;7.43;;;2.40;;
5333;SDS011;2689;50.954;7.116;2023-09-19T05:55:49;11.67;;;3.23;;
5333;SDS011;2689;50.954;7.116;2023-09-19T05:58:18;8.63;;;2.57;;
5333;SDS011;2689;50.954;7.116;2023-09-19T06:00:46;15.27;;;3.00;;
5333;SDS011;2689;50.954;7.116;2023-09-19T06:03:14;10.37;;;2.47;;
5333;SDS011;2689;50.954;7.116;2023-09-19T06:05:42;10.10;;;2.43;;
5333;SDS011;2689;50.954;7.116;2023-09-19T06:08:11;11.10;;;3.03;;
5333;SDS011;2689;50.954;7.116;2023-09-19T06:10:38;8.43;;;3.40;;
5333;SDS011;2689;50.954;7.116;2023-09-19T06:13:05;11.43;;;3.50;;
5333;SDS011;2689;50.954;7.116;2023-09-19T06:15:34;9.57;;;2.60;;
5333;SDS011;2689;50.954;7.116;2023-09-19T06:18:03;8.80;;;2.47;;
5333;SDS011;2689;50.954;7.116;2023-09-19T06:20:30;11.20;;;2.43;;
5333;SDS011;2689;50.954;7.116;2023-09-19T06:22:58;10.60;;;2.80;;
5333;SDS011;2689;50.954;7.116;2023-09-19T06:25:29;13.00;;;2.80;;
5333;SDS011;2689;50.954;7.116;2023-09-19T06:27:55;6.30;;;1.90;;
5333;SDS011;2689;50.954;7.116;2023-09-19T06:30:23;6.57;;;2.43;;
5333;SDS011;2689;50.954;7.116;2023-09-19T06:32:55;8.00;;;4.13;;
5333;SDS011;2689;50.954;7.116;2023-09-19T06:35:23;10.83;;;3.83;;
5333;SDS011;2689;50.954;7.116;2023-09-19T06:37:51;8.27;;;2.80;;
5333;SDS011;2689;50.954;7.116;2023-09-19T06:40:18;8.93;;;3.27;;
5333;SDS011;2689;50.954;7.116;2023-09-19T06:42:46;8.00;;;2.63;;
5333;SDS011;2689;50.954;7.116;2023-09-19T06:45:16;7.70;;;2.80;;
5333;SDS011;2689;50.954;7.116;2023-09-19T06:47:44;8.73;;;2.73;;
5333;SDS011;2689;50.954;7.116;2023-09-19T06:50:11;9.10;;;2.50;;
5333;SDS011;2689;50.954;7.116;2023-09-19T06:52:41;9.50;;;2.80;;
5333;SDS011;2689;50.954;7.116;2023-09-19T06:55:08;9.33;;;3.10;;
5333;SDS011;2689;50.954;7.116;2023-09-19T06:57:38;6.87;;;3.03;;
5333;SDS011;2689;50.954;7.116;2023-09-19T07:00:06;12.50;;;3.60;;
5333;SDS011;2689;50.954;7.116;2023-09-19T07:02:40;6.93;;;2.37;;
5333;SDS011;2689;50.954;7.116;2023-09-19T07:05:07;3.40;;;1.97;;
5333;SDS011;2689;50.954;7.116;2023-09-19T07:07:34;12.23;;;2.90;;
5333;SDS011;2689;50.954;7.116;2023-09-19T07:10:02;15.83;;;2.80;;
5333;SDS011;2689;50.954;7.116;2023-09-19T07:12:31;9.30;;;2.20;;
5333;SDS011;2689;50.954;7.116;2023-09-19T07:14:58;8.33;;;3.00;;
5333;SDS011;2689;50.954;7.116;2023-09-19T07:17:24;13.20;;;3.40;;
5333;SDS011;2689;50.954;7.116;2023-09-19T07:19:53;9.43;;;2.60;;
5333;SDS011;2689;50.954;7.116;2023-09-19T07:22:19;12.33;;;2.80;;
5333;SDS011;2689;50.954;7.116;2023-09-19T07:24:48;8.73;;;2.30;;
5333;SDS011;2689;50.954;7.116;2023-09-19T07:27:16;11.97;;;2.60;;
5333;SDS011;2689;50.954;7.116;2023-09-19T07:29:43;8.93;;;2.43;;
5333;SDS011;2689;50.954;7.116;2023-09-19T07:32:10;18.30;;;3.60;;
5333;SDS011;2689;50.954;7.116;2023-09-19T07:34:38;12.90;;;3.33;;
5333;SDS011;2689;50.954;7.116;2023-09-19T07:37:05;11.40;;;2.40;;
5333;SDS011;2689;50.954;7.116;2023-09-19T07:39:33;6.13;;;2.00;;
5333;SDS011;2689;50.954;7.116;2023-09-19T07:41:59;8.20;;;3.90;;
5333;SDS011;2689;50.954;7.116;2023-09-19T07:44:27;8.57;;;2.37;;
5333;SDS011;2689;50.954;7.116;2023-09-19T07:46:54;10.03;;;2.80;;
5333;SDS011;2689;50.954;7.116;2023-09-19T07:49:21;9.93;;;2.33;;
5333;SDS011;2689;50.954;7.116;2023-09-19T07:51:48;8.90;;;2.10;;
5333;SDS011;2689;50.954;7.116;2023-09-19T07:54:15;7.17;;;2.50;;
5333;SDS011;2689;50.954;7.116;2023-09-19T07:56:42;10.03;;;3.13;;
5333;SDS011;2689;50.954;7.116;2023-09-19T07:59:10;16.10;;;3.73;;
5333;SDS011;2689;50.954;7.116;2023-09-19T08:01:40;12.10;;;3.03;;
5333;SDS011;2689;50.954;7.116;2023-09-19T08:04:08;5.73;;;2.20;;
5333;SDS011;2689;50.954;7.116;2023-09-19T08:06:35;6.50;;;2.20;;
5333;SDS011;2689;50.954;7.116;2023-09-19T08:09:03;3.80;;;2.00;;
5333;SDS011;2689;50.954;7.116;2023-09-19T08:11:32;11.63;;;2.90;;
5333;SDS011;2689;50.954;7.116;2023-09-19T08:13:59;8.07;;;2.30;;
5333;SDS011;2689;50.954;7.116;2023-09-19T08:16:26;7.23;;;2.10;;
5333;SDS011;2689;50.954;7.116;2023-09-19T08:18:54;6.83;;;2.13;;
5333;SDS011;2689;50.954;7.116;2023-09-19T08:21:21;11.10;;;2.50;;
5333;SDS011;2689;50.954;7.116;2023-09-19T08:23:49;8.53;;;2.67;;
5333;SDS011;2689;50.954;7.116;2023-09-19T08:26:15;11.20;;;2.83;;
5333;SDS011;2689;50.954;7.116;2023-09-19T08:28:42;8.87;;;2.83;;
5333;SDS011;2689;50.954;7.116;2023-09-19T08:31:09;9.60;;;2.33;;
5333;SDS011;2689;50.954;7.116;2023-09-19T08:33:36;9.83;;;2.30;;
5333;SDS011;2689;50.954;7.116;2023-09-19T08:36:05;7.00;;;2.30;;
5333;SDS011;2689;50.954;7.116;2023-09-19T08:38:34;6.57;;;2.60;;
5333;SDS011;2689;50.954;7.116;2023-09-19T08:41:04;7.03;;;2.40;;
5333;SDS011;2689;50.954;7.116;2023-09-19T08:43:33;7.53;;;2.30;;
5333;SDS011;2689;50.954;7.116;2023-09-19T08:46:03;7.40;;;2.30;;
5333;SDS011;2689;50.954;7.116;2023-09-19T08:48:36;11.17;;;2.60;;
5333;SDS011;2689;50.954;7.116;2023-09-19T08:51:10;5.03;;;1.57;;
5333;SDS011;2689;50.954;7.116;2023-09-19T08:53:47;8.73;;;2.43;;
5333;SDS011;2689;50.954;7.116;2023-09-19T08:56:18;5.73;;;2.03;;
5333;SDS011;2689;50.954;7.116;2023-09-19T08:58:46;9.13;;;2.67;;
5333;SDS011;2689;50.954;7.116;2023-09-19T09:01:18;9.10;;;2.07;;
5333;SDS011;2689;50.954;7.116;2023-09-19T09:03:49;9.30;;;2.20;;
5333;SDS011;2689;50.954;7.116;2023-09-19T09:06:20;6.20;;;2.37;;
5333;SDS011;2689;50.954;7.116;2023-09-19T09:08:48;11.80;;;3.00;;
5333;SDS011;2689;50.954;7.116;2023-09-19T09:11:16;9.40;;;2.23;;
5333;SDS011;2689;50.954;7.116;2023-09-19T09:13:43;9.30;;;2.43;;
5333;SDS011;2689;50.954;7.116;2023-09-19T09:16:11;6.87;;;2.30;;
5333;SDS011;2689;50.954;7.116;2023-09-19T09:18:38;7.60;;;2.37;;
5333;SDS011;2689;50.954;7.116;2023-09-19T09:21:05;6.30;;;2.13;;
5333;SDS011;2689;50.954;7.116;2023-09-19T09:23:33;6.50;;;2.23;;
5333;SDS011;2689;50.954;7.116;2023-09-19T09:26:00;7.37;;;2.40;;
5333;SDS011;2689;50.954;7.116;2023-09-19T09:28:30;7.90;;;2.40;;
5333;SDS011;2689;50.954;7.116;2023-09-19T09:30:58;5.70;;;1.73;;
5333;SDS011;2689;50.954;7.116;2023-09-19T09:33:27;10.67;;;2.60;;
5333;SDS011;2689;50.954;7.116;2023-09-19T09:35:55;8.07;;;2.80;;
5333;SDS011;2689;50.954;7.116;2023-09-19T09:38:25;7.20;;;2.13;;
5333;SDS011;2689;50.954;7.116;2023-09-19T09:40:59;6.10;;;1.90;;
5333;SDS011;2689;50.954;7.116;2023-09-19T09:43:32;7.30;;;2.17;;
5333;SDS011;2689;50.954;7.116;2023-09-19T09:46:13;5.80;;;1.97;;
5333;SDS011;2689;50.954;7.116;2023-09-19T09:48:59;5.87;;;2.20;;
5333;SDS011;2689;50.954;7.116;2023-09-19T09:51:58;7.13;;;2.17;;
5333;SDS011;2689;50.954;7.116;2023-09-19T09:54:27;5.53;;;2.20;;
5333;SDS011;2689;50.954;7.116;2023-09-19T09:57:03;3.90;;;1.30;;
5333;SDS011;2689;50.954;7.116;2023-09-19T09:59:43;7.07;;;2.00;;
5333;SDS011;2689;50.954;7.116;2023-09-19T10:02:15;7.20;;;2.50;;
5333;SDS011;2689;50.954;7.116;2023-09-19T10:04:48;4.53;;;2.13;;
5333;SDS011;2689;50.954;7.116;2023-09-19T10:07:27;5.70;;;2.00;;
5333;SDS011;2689;50.954;7.116;2023-09-19T10:09:58;5.50;;;2.10;;
5333;SDS011;2689;50.954;7.116;2023-09-19T10:12:36;8.70;;;2.47;;
5333;SDS011;2689;50.954;7.116;2023-09-19T10:15:07;8.33;;;1.77;;
5333;SDS011;2689;50.954;7.116;2023-09-19T10:17:37;3.53;;;1.50;;
5333;SDS011;2689;50.954;7.116;2023-09-19T10:20:09;5.33;;;1.97;;
5333;SDS011;2689;50.954;7.116;2023-09-19T10:22:57;7.57;;;2.00;;
5333;SDS011;2689;50.954;7.116;2023-09-19T10:25:26;5.27;;;2.10;;
5333;SDS011;2689;50.954;7.116;2023-09-19T10:27:56;4.10;;;1.60;;
5333;SDS011;2689;50.954;7.116;2023-09-19T10:30:27;6.90;;;2.10;;
5333;SDS011;2689;50.954;7.116;2023-09-19T10:32:59;7.47;;;1.90;;
5333;SDS011;2689;50.954;7.116;2023-09-19T10:35:27;6.50;;;1.80;;
5333;SDS011;2689;50.954;7.116;2023-09-19T10:37:54;6.77;;;2.30;;
5333;SDS011;2689;50.954;7.116;2023-09-19T10:40:26;5.40;;;1.93;;
5333;SDS011;2689;50.954;7.116;2023-09-19T10:43:01;6.20;;;2.43;;
5333;SDS011;2689;50.954;7.116;2023-09-19T10:45:32;7.13;;;2.37;;
5333;SDS011;2689;50.954;7.116;2023-09-19T10:48:00;5.93;;;1.77;;
5333;SDS011;2689;50.954;7.116;2023-09-19T10:50:29;6.60;;;2.47;;
5333;SDS011;2689;50.954;7.116;2023-09-19T10:53:00;7.90;;;2.03;;
5333;SDS011;2689;50.954;7.116;2023-09-19T10:55:32;7.73;;;1.80;;
5333;SDS011;2689;50.954;7.116;2023-09-19T10:58:03;6.47;;;1.63;;
5333;SDS011;2689;50.954;7.116;2023-09-19T11:00:51;3.40;;;1.73;;
5333;SDS011;2689;50.954;7.116;2023-09-19T11:03:20;6.63;;;1.73;;
5333;SDS011;2689;50.954;7.116;2023-09-19T11:06:02;7.70;;;1.83;;
5333;SDS011;2689;50.954;7.116;2023-09-19T11:08:57;4.83;;;1.93;;
5333;SDS011;2689;50.954;7.116;2023-09-19T11:11:51;4.13;;;1.70;;
5333;SDS011;2689;50.954;7.116;2023-09-19T11:14:40;5.70;;;2.73;;
5333;SDS011;2689;50.954;7.116;2023-09-19T11:23:17;4.00;;;1.50;;
5333;SDS011;2689;50.954;7.116;2023-09-19T11:25:52;5.20;;;1.90;;
5333;SDS011;2689;50.954;7.116;2023-09-19T11:28:32;7.63;;;1.87;;
5333;SDS011;2689;50.954;7.116;2023-09-19T11:40:27;4.60;;;2.00;;
5333;SDS011;2689;50.954;7.116;2023-09-19T11:42:55;6.70;;;1.97;;
5333;SDS011;2689;50.954;7.116;2023-09-19T11:48:28;5.33;;;1.93;;
5333;SDS011;2689;50.954;7.116;2023-09-19T11:50:59;5.83;;;1.93;;
5333;SDS011;2689;50.954;7.116;2023-09-19T11:53:32;6.50;;;2.07;;
5333;SDS011;2689;50.954;7.116;2023-09-19T11:56:09;7.33;;;2.47;;
5333;SDS011;2689;50.954;7.116;2023-09-19T11:58:37;7.13;;;1.90;;
5333;SDS011;2689;50.954;7.116;2023-09-19T12:01:05;5.17;;;2.37;;
5333;SDS011;2689;50.954;7.116;2023-09-19T12:03:41;20.17;;;2.30;;
5333;SDS011;2689;50.954;7.116;2023-09-19T12:06:15;5.00;;;2.20;;
5333;SDS011;2689;50.954;7.116;2023-09-19T12:08:44;3.53;;;1.90;;
5333;SDS011;2689;50.954;7.116;2023-09-19T12:11:16;10.30;;;2.17;;
5333;SDS011;2689;50.954;7.116;2023-09-19T12:13:50;6.97;;;2.40;;
5333;SDS011;2689;50.954;7.116;2023-09-19T12:16:19;8.80;;;2.47;;
5333;SDS011;2689;50.954;7.116;2023-09-19T12:18:48;6.43;;;1.73;;
5333;SDS011;2689;50.954;7.116;2023-09-19T12:21:27;4.13;;;1.70;;
5333;SDS011;2689;50.954;7.116;2023-09-19T12:24:03;5.23;;;1.63;;
5333;SDS011;2689;50.954;7.116;2023-09-19T12:26:38;4.13;;;1.90;;
5333;SDS011;2689;50.954;7.116;2023-09-19T12:29:20;4.30;;;1.97;;
5333;SDS011;2689;50.954;7.116;2023-09-19T12:31:53;5.53;;;2.10;;
5333;SDS011;2689;50.954;7.116;2023-09-19T12:34:29;5.73;;;2.60;;
5333;SDS011;2689;50.954;7.116;2023-09-19T12:37:05;6.57;;;2.00;;
5333;SDS011;2689;50.954;7.116;2023-09-19T12:39:38;7.40;;;2.10;;
5333;SDS011;2689;50.954;7.116;2023-09-19T12:42:42;6.10;;;2.00;;
5333;SDS011;2689;50.954;7.116;2023-09-19T12:45:09;5.10;;;1.93;;
5333;SDS011;2689;50.954;7.116;2023-09-19T12:47:40;3.80;;;1.77;;
5333;SDS011;2689;50.954;7.116;2023-09-19T12:51:00;5.20;;;1.90;;
5333;SDS011;2689;50.954;7.116;2023-09-19T12:53:32;5.40;;;1.90;;
5333;SDS011;2689;50.954;7.116;2023-09-19T12:56:03;5.23;;;1.87;;
5333;SDS011;2689;50.954;7.116;2023-09-19T12:58:33;6.50;;;2.17;;
5333;SDS011;2689;50.954;7.116;2023-09-19T13:01:00;4.97;;;2.10;;
5333;SDS011;2689;50.954;7.116;2023-09-19T13:03:28;3.87;;;1.67;;
5333;SDS011;2689;50.954;7.116;2023-09-19T13:06:00;5.50;;;2.10;;
5333;SDS011;2689;50.954;7.116;2023-09-19T13:08:29;11.40;;;2.00;;
5333;SDS011;2689;50.954;7.116;2023-09-19T13:11:09;7.07;;;2.03;;
5333;SDS011;2689;50.954;7.116;2023-09-19T13:13:41;4.50;;;1.90;;
5333;SDS011;2689;50.954;7.116;2023-09-19T13:16:11;4.10;;;2.00;;
5333;SDS011;2689;50.954;7.116;2023-09-19T13:18:45;4.50;;;1.67;;
5333;SDS011;2689;50.954;7.116;2023-09-19T13:21:12;6.30;;;2.00;;
5333;SDS011;2689;50.954;7.116;2023-09-19T13:23:49;4.83;;;1.50;;
5333;SDS011;2689;50.954;7.116;2023-09-19T13:26:18;6.13;;;1.70;;
5333;SDS011;2689;50.954;7.116;2023-09-19T13:28:45;4.80;;;1.80;;
5333;SDS011;2689;50.954;7.116;2023-09-19T13:31:13;4.10;;;1.53;;
5333;SDS011;2689;50.954;7.116;2023-09-19T13:33:42;4.73;;;1.67;;
5333;SDS011;2689;50.954;7.116;2023-09-19T13:36:24;4.53;;;1.80;;
5333;SDS011;2689;50.954;7.116;2023-09-19T13:38:50;2.13;;;1.37;;
5333;SDS011;2689;50.954;7.116;2023-09-19T13:41:19;4.27;;;1.90;;
5333;SDS011;2689;50.954;7.116;2023-09-19T13:43:46;4.53;;;1.67;;
5333;SDS011;2689;50.954;7.116;2023-09-19T13:46:14;4.70;;;1.50;;
5333;SDS011;2689;50.954;7.116;2023-09-19T13:48:41;5.03;;;1.60;;
5333;SDS011;2689;50.954;7.116;2023-09-19T13:51:08;3.80;;;1.67;;
5333;SDS011;2689;50.954;7.116;2023-09-19T13:53:35;2.50;;;1.10;;
5333;SDS011;2689;50.954;7.116;2023-09-19T13:56:02;3.50;;;1.50;;
5333;SDS011;2689;50.954;7.116;2023-09-19T13:58:30;4.03;;;1.53;;
5333;SDS011;2689;50.954;7.116;2023-09-19T14:00:58;2.40;;;1.07;;
5333;SDS011;2689;50.954;7.116;2023-09-19T14:03:25;2.57;;;1.13;;
5333;SDS011;2689;50.954;7.116;2023-09-19T14:05:53;9.10;;;1.50;;
5333;SDS011;2689;50.954;7.116;2023-09-19T14:08:20;4.20;;;1.50;;
5333;SDS011;2689;50.954;7.116;2023-09-19T14:10:47;5.00;;;1.57;;
5333;SDS011;2689;50.954;7.116;2023-09-19T14:13:13;3.33;;;1.30;;
5333;SDS011;2689;50.954;7.116;2023-09-19T14:15:42;2.97;;;1.00;;
5333;SDS011;2689;50.954;7.116;2023-09-19T14:18:08;2.97;;;1.20;;
5333;SDS011;2689;50.954;7.116;2023-09-19T14:20:37;4.50;;;1.60;;
5333;SDS011;2689;50.954;7.116;2023-09-19T14:23:06;2.80;;;1.23;;
5333;SDS011;2689;50.954;7.116;2023-09-19T14:25:33;2.93;;;0.90;;
5333;SDS011;2689;50.954;7.116;2023-09-19T14:28:01;3.33;;;1.43;;
5333;SDS011;2689;50.954;7.116;2023-09-19T14:30:28;6.63;;;1.47;;
5333;SDS011;2689;50.954;7.116;2023-09-19T14:32:56;3.63;;;1.23;;
5333;SDS011;2689;50.954;7.116;2023-09-19T14:35:23;2.70;;;1.20;;
5333;SDS011;2689;50.954;7.116;2023-09-19T14:37:50;4.50;;;1.50;;
5333;SDS011;2689;50.954;7.116;2023-09-19T14:40:17;4.90;;;1.40;;
5333;SDS011;2689;50.954;7.116;2023-09-19T14:42:45;3.67;;;1.50;;
5333;SDS011;2689;50.954;7.116;2023-09-19T14:45:13;6.70;;;1.27;;
5333;SDS011;2689;50.954;7.116;2023-09-19T14:47:43;5.20;;;1.60;;
5333;SDS011;2689;50.954;7.116;2023-09-19T14:50:11;2.93;;;1.40;;
5333;SDS011;2689;50.954;7.116;2023-09-19T14:52:41;2.60;;;1.33;;
5333;SDS011;2689;50.954;7.116;2023-09-19T14:55:09;4.63;;;1.67;;
5333;SDS011;2689;50.954;7.116;2023-09-19T14:57:39;2.47;;;1.40;;
5333;SDS011;2689;50.954;7.116;2023-09-19T15:00:09;2.80;;;1.20;;
5333;SDS011;2689;50.954;7.116;2023-09-19T15:02:37;3.73;;;1.30;;
5333;SDS011;2689;50.954;7.116;2023-09-19T15:05:06;2.97;;;1.33;;
5333;SDS011;2689;50.954;7.116;2023-09-19T15:07:35;2.47;;;1.30;;
5333;SDS011;2689;50.954;7.116;2023-09-19T15:10:03;2.63;;;1.00;;
5333;SDS011;2689;50.954;7.116;2023-09-19T15:12:34;6.50;;;1.10;;
5333;SDS011;2689;50.954;7.116;2023-09-19T15:15:02;3.93;;;1.27;;
5333;SDS011;2689;50.954;7.116;2023-09-19T15:17:31;2.60;;;1.03;;
5333;SDS011;2689;50.954;7.116;2023-09-19T15:19:58;3.43;;;1.63;;
5333;SDS011;2689;50.954;7.116;2023-09-19T15:22:27;4.93;;;1.07;;
5333;SDS011;2689;50.954;7.116;2023-09-19T15:24:55;4.13;;;1.33;;
5333;SDS011;2689;50.954;7.116;2023-09-19T15:27:22;4.23;;;1.43;;
5333;SDS011;2689;50.954;7.116;2023-09-19T15:29:50;2.50;;;1.10;;
5333;SDS011;2689;50.954;7.116;2023-09-19T15:32:17;2.27;;;1.23;;
5333;SDS011;2689;50.954;7.116;2023-09-19T15:34:43;3.20;;;1.20;;
5333;SDS011;2689;50.954;7.116;2023-09-19T15:37:11;5.40;;;1.63;;
5333;SDS011;2689;50.954;7.116;2023-09-19T15:39:38;3.97;;;1.20;;
5333;SDS011;2689;50.954;7.116;2023-09-19T15:42:08;7.00;;;1.40;;
5333;SDS011;2689;50.954;7.116;2023-09-19T15:44:35;3.00;;;1.27;;
5333;SDS011;2689;50.954;7.116;2023-09-19T15:47:03;3.23;;;1.43;;
5333;SDS011;2689;50.954;7.116;2023-09-19T15:49:30;2.87;;;1.30;;
5333;SDS011;2689;50.954;7.116;2023-09-19T15:51:58;4.10;;;1.40;;
5333;SDS011;2689;50.954;7.116;2023-09-19T15:54:25;3.80;;;1.07;;